Stites, Idaho
Current Conditions -  °F | °C
As of 1:35 AM on Friday 24 Oct 2014 (Local Time) from KGIC Reporting Station
Overcast Overcast  
Wind Chill: 43°   Ceiling: 6500
Heat Index: 47°   Visibility: 5mi
Dew Point: 45°   Wind: 8mph
Humidity: 94%   Direction: 130°SE
Pressure: 30.1"   Gusts: NA
Location:  46.09°N, 115.98°W
Report Text: KGIC 240835Z AUTO 13007KT 5SM SCT028 SCT045 OVC065 08/07 A3010 RMK AO1 T00810072
Loading
Personal Weather Stations






























Interactive Weather Map
Tropical Storm Tracking
New forecast layout! Learn more

10-Day Weather Forecast

Advertisements
Track Severe Weather on mobile